หน้าหลัก
METAR-TAF:

METAR-TAF

ท่าอากาศยาน :

Hawarden, เวลส์

ละติจูด: 53-10N, ลองจิจูด: 002-59W, ความสูง: 10 ม.

การสังเกตสภาพอากาศปัจจุบัน

รายงานได้ทำขึ้นเมื่อ 9 ชั่วโมงและ 13 นาทีที่แล้ว ณ เวลา 19:50 UTC
ลม 5 นอตจากเหนือ/ตะวันตกเฉียงเหนือ
อุณหภูมิ 12°C
ความชื้น 67%
ความกดอากาศ 1019 hPa
ทัศนวิสัย 10 กม. หรือมากกว่า
มีเมฆน้อยที่ความสูง 4000 ฟุต

METAR: EGNR 121950Z 34005KT 9999 FEW040 12/06 Q1019

เวลา: 06:03 (05:03 UTC)

การพยากรณ์

รายงานได้ทำขึ้นเมื่อ 12 ชั่วโมงและ 1 นาทีที่แล้ว ณ เวลา 17:02 UTC
การพยากรณ์มีผลตั้งแต่วันที่ 12 ณ เวลา 18 UTC จนถึงวันที่ 12 ณ เวลา 20 UTC
ลม 8 นอตจากตะวันตกเฉียงเหนือ
ทัศนวิสัย 10 กม. หรือมากกว่า
มีเมฆกระจายเป็นบางส่วนที่ความสูง 3000 ฟุต

TAF: EGNR 121702Z 1218/1220 32008KT 9999 SCT030

สังเกตการณ์สภาพอากาศและพยากรณ์อากาศของสนามบินมากกว่า 4000 แห่ง (รายงาน METAR และ TAF).

สถานีที่ดูได้จะแสดงไว้ด้วยจุดสีเหลืองและสีแดงบนแผนที่.

เลื่อนเมาส์ไปเหนือจุดเพื่อดูชื่อสถานี.

แล้วคลิกเพื่อดูสังเกตการณ์และการพยากรณ์สภาพอากาศ.

ในการเปลี่ยนแผนที่: คลิกที่ปุ่มสีเขียวที่มีกากบาทสีดำเพื่อซูมเข้า; ที่ปุ่มสีเขียวที่มีขีดเพื่อซูมออก; หรือที่ลูกศรสีเขียวเพื่อไปยังแผนที่ที่อยู่ติดกัน.


METAR-TAF: